Time;durP1;ratioP1;P1;durP2;ratioP2;P2;SDS_P1;SDS_P2;PMS_P1;PMS_P2;Temp;Humidity;BMP_temperature;BMP_pressure;BME280_temperature;BME280_humidity;BME280_pressure;Samples;Min_cycle;Max_cycle;Signal;HPM_P1;HPM_P2
2023/10/11 00:06:33;;;;;;;27.13;9.77;;;15.30;66.80;;;;;;6196006;28;20516;-76
2023/10/11 00:09:35;;;;;;;25.33;9.35;;;15.20;67.50;;;;;;6172126;28;20055;-76
2023/10/11 00:12:37;;;;;;;21.98;9.93;;;15.20;67.80;;;;;;6195640;28;20050;-76
2023/10/11 00:15:38;;;;;;;25.13;9.93;;;15.20;68.40;;;;;;6189690;28;20054;-76
2023/10/11 00:18:40;;;;;;;25.20;10.48;;;15.20;68.60;;;;;;6161623;28;20063;-76
2023/10/11 00:21:43;;;;;;;27.23;11.13;;;15.20;68.30;;;;;;6178981;28;20055;-76
2023/10/11 00:24:44;;;;;;;25.30;10.18;;;15.20;68.80;;;;;;6196524;28;20054;-76
2023/10/11 00:27:46;;;;;;;29.08;12.07;;;15.10;69.60;;;;;;6191248;28;20058;-76
2023/10/11 00:30:48;;;;;;;29.08;12.48;;;15.20;69.20;;;;;;6173583;28;20061;-76
2023/10/11 00:33:49;;;;;;;23.20;12.05;;;15.20;68.80;;;;;;6196834;28;20054;-76
2023/10/11 00:36:51;;;;;;;26.05;12.57;;;15.20;68.50;;;;;;6195038;28;20769;-76
2023/10/11 00:39:54;;;;;;;34.35;13.38;;;15.20;69.80;;;;;;6167828;28;20422;-76
2023/10/11 00:42:56;;;;;;;30.00;12.38;;;15.20;70.20;;;;;;6189742;28;20130;-76
2023/10/11 00:45:59;;;;;;;22.88;11.27;;;15.20;70.70;;;;;;6185005;28;20063;-76
2023/10/11 00:49:07;;;;;;;27.67;10.45;;;15.20;71.40;;;;;;6174050;28;20058;-77
2023/10/11 00:52:08;;;;;;;28.98;10.05;;;15.20;70.30;;;;;;6185100;28;20046;-77
2023/10/11 00:55:17;;;;;;;26.13;10.20;;;15.20;71.40;;;;;;6195974;28;20569;-76
2023/10/11 00:58:18;;;;;;;23.52;9.63;;;15.20;71.20;;;;;;6155430;28;20061;-76
2023/10/11 01:01:22;;;;;;;29.48;9.98;;;15.20;71.20;;;;;;6196111;28;20062;-76
2023/10/11 01:04:27;;;;;;;22.65;9.85;;;15.20;70.90;;;;;;6153480;28;20066;-76
2023/10/11 01:07:29;;;;;;;24.58;10.00;;;15.20;71.10;;;;;;6162796;28;20137;-76
2023/10/11 01:10:31;;;;;;;26.98;10.48;;;15.30;71.40;;;;;;6193305;28;20069;-77
2023/10/11 01:13:32;;;;;;;25.90;10.15;;;15.20;71.10;;;;;;6180909;28;20054;-76
2023/10/11 01:16:35;;;;;;;23.73;10.85;;;15.30;71.20;;;;;;6195625;28;20054;-76
2023/10/11 01:19:37;;;;;;;28.90;10.63;;;15.30;71.20;;;;;;6195469;28;20058;-77
2023/10/11 01:22:38;;;;;;;28.55;10.50;;;15.40;71.60;;;;;;6173256;28;20058;-78
2023/10/11 01:25:40;;;;;;;24.48;9.30;;;15.40;70.90;;;;;;6195219;28;20057;-77
2023/10/11 01:28:42;;;;;;;23.50;10.40;;;15.50;70.00;;;;;;6188652;28;20053;-76
2023/10/11 01:31:43;;;;;;;23.05;9.75;;;15.60;69.00;;;;;;6176594;28;20430;-77
2023/10/11 01:34:45;;;;;;;25.52;9.27;;;15.60;68.00;;;;;;6194659;28;20061;-76
2023/10/11 01:37:48;;;;;;;28.52;10.48;;;15.70;67.50;;;;;;6195454;28;20062;-77
2023/10/11 01:40:50;;;;;;;31.38;10.70;;;15.70;67.40;;;;;;6188076;28;20050;-76
2023/10/11 01:43:51;;;;;;;23.83;9.10;;;15.70;67.10;;;;;;6187950;28;20796;-76
2023/10/11 01:46:53;;;;;;;22.80;9.60;;;15.70;67.10;;;;;;6176451;28;20050;-80
2023/10/11 01:49:54;;;;;;;22.98;9.43;;;15.80;67.20;;;;;;6181303;28;20511;-76
2023/10/11 01:52:56;;;;;;;23.92;9.50;;;15.80;67.10;;;;;;6194700;28;20054;-78
2023/10/11 01:55:58;;;;;;;21.98;8.43;;;15.80;66.40;;;;;;6195280;28;20140;-75
2023/10/11 01:59:01;;;;;;;19.60;8.48;;;15.90;66.20;;;;;;6182403;28;20410;-77
2023/10/11 02:02:03;;;;;;;19.45;8.63;;;15.90;65.30;;;;;;6194380;28;20058;-76
2023/10/11 02:05:05;;;;;;;23.52;8.18;;;15.90;65.60;;;;;;6195055;28;20687;-76
2023/10/11 02:08:11;;;;;;;26.10;8.55;;;16.00;65.50;;;;;;6193432;28;20085;-76
2023/10/11 02:11:16;;;;;;;16.95;8.38;;;16.00;65.40;;;;;;6159689;28;20423;-76
2023/10/11 02:14:18;;;;;;;20.05;8.50;;;16.00;66.10;;;;;;6197013;28;20054;-77
2023/10/11 02:17:23;;;;;;;19.33;7.90;;;16.00;65.90;;;;;;6199430;28;20058;-78
2023/10/11 02:20:25;;;;;;;18.20;7.82;;;16.00;66.20;;;;;;6168359;28;20084;-77
2023/10/11 02:23:26;;;;;;;19.30;8.20;;;16.00;66.50;;;;;;6213537;28;20060;-77
2023/10/11 02:26:31;;;;;;;22.63;8.00;;;16.10;66.60;;;;;;6199722;28;20508;-76
2023/10/11 02:29:35;;;;;;;22.60;7.85;;;16.10;66.40;;;;;;6170304;28;20058;-76
2023/10/11 02:32:38;;;;;;;21.58;8.43;;;16.10;66.10;;;;;;6185444;28;20188;-77
2023/10/11 02:36:08;;;;;;;19.35;8.20;;;16.20;65.70;;;;;;6199147;28;20053;-77
2023/10/11 02:39:06;;;;;;;19.60;8.60;;;16.20;65.90;;;;;;6167026;28;20051;-77
2023/10/11 02:42:07;;;;;;;20.10;8.55;;;16.20;66.20;;;;;;6198498;28;20433;-77
2023/10/11 02:45:12;;;;;;;22.15;8.23;;;16.20;66.40;;;;;;6186964;28;20046;-77
2023/10/11 02:48:19;;;;;;;19.95;7.95;;;16.20;65.60;;;;;;6174681;28;20054;-77
2023/10/11 02:51:24;;;;;;;23.77;8.23;;;16.20;66.30;;;;;;6159026;28;20110;-76
2023/10/11 02:54:38;;;;;;;22.42;8.85;;;16.20;66.70;;;;;;6163880;28;20057;-77
2023/10/11 02:57:40;;;;;;;20.63;8.32;;;16.20;66.40;;;;;;6197339;28;20054;-77
2023/10/11 03:00:44;;;;;;;22.25;9.88;;;16.20;66.20;;;;;;6185345;28;20055;-76
2023/10/11 03:03:47;;;;;;;18.58;8.63;;;16.10;67.00;;;;;;6174719;28;20061;-76
2023/10/11 03:06:49;;;;;;;25.10;9.05;;;16.10;67.20;;;;;;6180822;28;20502;-76
2023/10/11 03:09:53;;;;;;;23.52;9.10;;;16.10;67.40;;;;;;6197822;28;20061;-76
2023/10/11 03:12:56;;;;;;;18.45;8.23;;;16.10;67.40;;;;;;6173027;28;20077;-76
2023/10/11 03:15:57;;;;;;;25.30;9.02;;;16.00;68.40;;;;;;6198393;28;20081;-76
2023/10/11 03:18:59;;;;;;;19.08;8.68;;;15.90;69.00;;;;;;6198250;28;20180;-76
2023/10/11 03:22:02;;;;;;;21.15;8.45;;;15.90;70.30;;;;;;6181065;28;20069;-76
2023/10/11 03:25:12;;;;;;;30.25;10.15;;;15.90;70.90;;;;;;6197728;28;20414;-76
2023/10/11 03:28:15;;;;;;;22.45;9.60;;;16.00;71.00;;;;;;6190968;28;20670;-77
2023/10/11 03:31:17;;;;;;;20.88;8.38;;;16.10;70.50;;;;;;6164533;28;20058;-77
2023/10/11 03:34:19;;;;;;;21.60;8.55;;;16.10;70.30;;;;;;6212021;28;20137;-76
2023/10/11 03:37:21;;;;;;;20.70;7.90;;;16.20;70.40;;;;;;6198056;28;20057;-76
2023/10/11 03:40:35;;;;;;;19.60;8.63;;;16.20;69.80;;;;;;6182035;28;20050;-78
2023/10/11 03:43:40;;;;;;;17.92;8.57;;;16.30;69.30;;;;;;6173238;28;20239;-77
2023/10/11 03:46:47;;;;;;;18.08;8.43;;;16.30;69.60;;;;;;6197507;28;20069;-77
2023/10/11 03:49:51;;;;;;;25.35;8.65;;;16.40;69.30;;;;;;6186710;28;20537;-77
2023/10/11 03:53:06;;;;;;;20.92;7.93;;;16.30;69.30;;;;;;6197194;28;20414;-78
2023/10/11 03:56:08;;;;;;;21.02;7.75;;;16.40;69.00;;;;;;6149923;28;20075;-76
2023/10/11 03:59:12;;;;;;;16.60;7.70;;;16.40;69.70;;;;;;6186312;28;20055;-77
2023/10/11 04:02:13;;;;;;;26.73;9.27;;;16.50;69.20;;;;;;6154739;28;20063;-78
2023/10/11 04:05:15;;;;;;;17.35;7.55;;;16.50;68.80;;;;;;6196315;28;20046;-79
2023/10/11 04:08:24;;;;;;;17.40;7.80;;;16.40;69.60;;;;;;6195899;28;20054;-77
2023/10/11 04:11:30;;;;;;;19.13;8.15;;;16.40;70.30;;;;;;6169542;28;20610;-78
2023/10/11 04:14:45;;;;;;;16.02;7.70;;;16.50;69.90;;;;;;6141726;28;20141;-76
2023/10/11 04:17:49;;;;;;;19.40;6.72;;;16.50;69.80;;;;;;6191416;28;20047;-80
2023/10/11 04:20:59;;;;;;;18.30;6.65;;;16.60;70.10;;;;;;6211533;28;20081;-77
2023/10/11 04:24:01;;;;;;;14.85;6.20;;;16.60;70.20;;;;;;6149141;28;20062;-78
2023/10/11 04:30:41;;;;;;;23.50;6.80;;;16.70;68.80;;;;;;6188898;28;20111;-78
2023/10/11 04:33:50;;;;;;;17.85;6.88;;;16.80;68.50;;;;;;6149100;28;20055;-78
2023/10/11 04:36:55;;;;;;;12.88;5.97;;;16.90;68.10;;;;;;6162065;28;20082;-78
2023/10/11 04:40:14;;;;;;;17.98;6.10;;;16.90;68.10;;;;;;6163207;28;20411;-77
2023/10/11 04:43:25;;;;;;;15.73;6.43;;;17.00;67.70;;;;;;6172360;28;20057;-78
2023/10/11 04:46:30;;;;;;;12.95;5.10;;;17.10;66.90;;;;;;6189598;28;20063;-78
2023/10/11 04:49:32;;;;;;;13.02;5.43;;;17.20;66.40;;;;;;6148303;28;20055;-77
2023/10/11 04:52:36;;;;;;;13.13;4.97;;;17.20;66.20;;;;;;6195252;28;20131;-78
2023/10/11 04:55:41;;;;;;;11.95;5.32;;;17.20;66.00;;;;;;6196199;28;20069;-79
2023/10/11 04:58:49;;;;;;;10.80;5.30;;;17.30;65.70;;;;;;6186743;28;20069;-77
2023/10/11 05:04:53;;;;;;;17.67;6.13;;;17.30;65.30;;;;;;6180806;28;20058;-77
2023/10/11 05:08:05;;;;;;;24.73;6.43;;;17.30;65.00;;;;;;6210532;28;20490;-77
2023/10/11 05:11:18;;;;;;;17.38;6.15;;;17.30;65.00;;;;;;6148014;28;20059;-78
2023/10/11 05:14:29;;;;;;;15.65;5.20;;;17.40;64.60;;;;;;6182508;28;20530;-77
2023/10/11 05:17:32;;;;;;;16.90;6.13;;;17.30;64.60;;;;;;6147931;28;20062;-78
2023/10/11 05:24:14;;;;;;;13.25;5.30;;;17.30;64.80;;;;;;6171534;28;20145;-77
2023/10/11 05:27:11;;;;;;;14.55;5.68;;;17.40;64.90;;;;;;6155125;28;20485;-77
2023/10/11 05:30:26;;;;;;;15.32;6.20;;;17.30;64.80;;;;;;6164679;28;20054;-77
2023/10/11 05:33:41;;;;;;;13.77;5.72;;;17.30;65.00;;;;;;6171979;28;20054;-79
2023/10/11 05:50:50;;;;;;;18.50;6.82;;;17.30;65.00;;;;;;6194304;28;20054;-79
2023/10/11 05:53:31;;;;;;;14.75;5.10;;;17.30;66.10;;;;;;6194427;28;20058;-79
2023/10/11 05:56:38;;;;;;;18.27;5.40;;;17.30;66.20;;;;;;6195020;28;20058;-79
2023/10/11 05:59:42;;;;;;;11.30;5.55;;;17.30;66.60;;;;;;6165671;28;20050;-78
2023/10/11 06:02:44;;;;;;;13.93;5.95;;;17.40;67.20;;;;;;6171532;28;20051;-78
2023/10/11 06:05:46;;;;;;;15.63;5.90;;;17.40;66.50;;;;;;6194940;28;20054;-80
2023/10/11 06:08:47;;;;;;;20.02;6.88;;;17.40;67.50;;;;;;6171493;28;20059;-79
2023/10/11 06:11:49;;;;;;;14.25;5.63;;;17.40;66.30;;;;;;6208634;28;20062;-79
2023/10/11 06:14:51;;;;;;;15.23;6.05;;;17.50;66.50;;;;;;6187684;28;20054;-79
2023/10/11 06:17:55;;;;;;;15.90;6.13;;;17.50;66.60;;;;;;6169650;28;20077;-79
2023/10/11 06:21:05;;;;;;;21.15;6.63;;;17.40;66.80;;;;;;6170323;28;20062;-78
2023/10/11 06:24:07;;;;;;;14.82;5.57;;;17.40;67.10;;;;;;6170863;28;20051;-78
2023/10/11 06:30:32;;;;;;;17.00;6.53;;;17.50;67.20;;;;;;6141960;28;20920;-79
2023/10/11 06:33:34;;;;;;;15.50;6.63;;;17.40;67.50;;;;;;6146963;28;20059;-77
2023/10/11 06:36:36;;;;;;;14.43;5.90;;;17.50;67.40;;;;;;6182865;28;20058;-77
2023/10/11 06:42:42;;;;;;;14.73;5.78;;;17.50;67.30;;;;;;6189957;28;20410;-74
2023/10/11 06:45:44;;;;;;;13.57;5.60;;;17.60;67.30;;;;;;6169753;28;20525;-80
2023/10/11 06:48:49;;;;;;;12.95;5.63;;;17.60;66.90;;;;;;6177175;28;20105;-74
2023/10/11 06:51:51;;;;;;;15.68;5.20;;;17.70;65.80;;;;;;6175566;28;20051;-79
2023/10/11 06:55:07;;;;;;;11.05;5.18;;;17.80;65.40;;;;;;6183479;28;20043;-77
2023/10/11 06:58:09;;;;;;;10.93;4.57;;;17.90;65.10;;;;;;6171917;28;20506;-76
2023/10/11 07:01:14;;;;;;;13.10;4.88;;;17.90;64.00;;;;;;6163890;28;20051;-79
2023/10/11 07:04:18;;;;;;;13.88;5.40;;;18.00;63.70;;;;;;6174402;28;20137;-79
2023/10/11 07:07:20;;;;;;;12.25;4.65;;;18.10;63.10;;;;;;6198415;28;20174;-79
2023/10/11 07:10:28;;;;;;;14.63;5.10;;;18.20;62.60;;;;;;6198258;28;20054;-82
2023/10/11 07:13:49;;;;;;;12.30;4.68;;;18.20;62.50;;;;;;6195128;28;20153;-79
2023/10/11 07:16:50;;;;;;;14.68;5.10;;;18.30;62.20;;;;;;6150402;28;20054;-82
2023/10/11 07:19:52;;;;;;;68.32;9.70;;;18.40;61.50;;;;;;6197384;28;20143;-80
2023/10/11 07:22:54;;;;;;;14.57;5.00;;;18.40;61.70;;;;;;6197851;28;20054;-83
2023/10/11 07:29:20;;;;;;;9.60;4.53;;;18.60;59.80;;;;;;6180928;28;20111;-78
2023/10/11 07:32:22;;;;;;;16.60;5.18;;;18.60;59.70;;;;;;6148704;29;20055;-78
2023/10/11 07:35:27;;;;;;;19.92;4.88;;;18.70;59.80;;;;;;6196562;28;20541;-80
2023/10/11 07:38:34;;;;;;;17.95;4.88;;;18.70;59.70;;;;;;6197781;28;20093;-79
2023/10/11 07:41:42;;;;;;;24.33;5.07;;;18.80;59.80;;;;;;6197525;28;20535;-78
2023/10/11 07:44:49;;;;;;;21.50;5.40;;;18.90;57.80;;;;;;6147416;28;20123;-79
2023/10/11 07:47:52;;;;;;;14.67;4.40;;;19.00;57.30;;;;;;6198357;28;20050;-82
2023/10/11 07:50:54;;;;;;;23.27;5.35;;;19.10;55.20;;;;;;6197516;28;20089;-79
2023/10/11 07:53:55;;;;;;;14.65;4.82;;;19.10;56.30;;;;;;6197830;28;20051;-81
2023/10/11 07:56:57;;;;;;;16.38;5.10;;;19.10;56.60;;;;;;6197741;28;20054;-80
2023/10/11 08:00:00;;;;;;;18.65;5.95;;;19.10;55.80;;;;;;6190702;28;20065;-78
2023/10/11 08:03:05;;;;;;;13.05;5.47;;;19.00;59.00;;;;;;6175860;28;20067;-78
2023/10/11 08:06:12;;;;;;;14.20;5.97;;;19.00;57.40;;;;;;6198335;28;20056;-79
2023/10/11 08:09:21;;;;;;;17.15;6.82;;;18.90;58.60;;;;;;6149747;28;20392;-80
2023/10/11 08:12:25;;;;;;;16.98;6.90;;;18.80;59.40;;;;;;6149687;28;20066;-79
2023/10/11 08:15:27;;;;;;;12.85;6.15;;;18.80;59.80;;;;;;6194337;28;20046;-82
2023/10/11 08:18:29;;;;;;;23.95;7.47;;;18.70;60.70;;;;;;6149284;29;20059;-80
2023/10/11 08:21:32;;;;;;;16.35;6.38;;;18.70;61.60;;;;;;6195420;28;20054;-80
2023/10/11 08:24:45;;;;;;;14.20;5.88;;;18.70;61.40;;;;;;6196508;28;20149;-81
2023/10/11 08:27:51;;;;;;;13.60;5.43;;;18.80;61.40;;;;;;6151798;28;20042;-79
2023/10/11 08:30:56;;;;;;;16.38;5.53;;;18.80;59.80;;;;;;6196590;28;20460;-77
2023/10/11 08:33:58;;;;;;;14.52;6.20;;;18.90;60.10;;;;;;6148305;28;20074;-78
2023/10/11 08:37:00;;;;;;;16.65;5.75;;;19.10;59.20;;;;;;6195446;28;20466;-82
2023/10/11 08:40:19;;;;;;;13.00;5.68;;;19.20;57.20;;;;;;6196536;28;20062;-79
2023/10/11 08:43:21;;;;;;;16.48;5.43;;;19.30;57.50;;;;;;6158585;28;20050;-80
2023/10/11 08:46:23;;;;;;;12.32;5.10;;;19.30;54.80;;;;;;6195798;28;20144;-79
2023/10/11 08:49:25;;;;;;;12.55;4.68;;;19.40;55.00;;;;;;6195795;28;20548;-79
2023/10/11 08:52:30;;;;;;;13.85;5.57;;;19.40;52.90;;;;;;6194653;28;20423;-80
2023/10/11 08:55:35;;;;;;;12.75;4.80;;;19.50;53.10;;;;;;6148561;28;20062;-80
2023/10/11 08:58:37;;;;;;;13.18;4.53;;;19.50;51.70;;;;;;6190398;28;20141;-81
2023/10/11 09:01:38;;;;;;;15.73;4.70;;;19.60;51.00;;;;;;6194001;28;20506;-82
2023/10/11 09:04:40;;;;;;;13.98;4.78;;;19.60;51.20;;;;;;6195623;28;20494;-79
2023/10/11 09:07:45;;;;;;;13.95;5.40;;;19.70;49.20;;;;;;6195757;28;20604;-84
2023/10/11 09:10:49;;;;;;;14.80;4.63;;;19.80;48.50;;;;;;6195664;28;20520;-83
2023/10/11 09:13:51;;;;;;;17.90;5.28;;;19.80;47.90;;;;;;6192478;28;20418;-83
2023/10/11 09:16:57;;;;;;;14.45;4.68;;;19.70;49.30;;;;;;6195848;28;20058;-80
2023/10/11 09:20:00;;;;;;;16.30;4.78;;;19.70;49.10;;;;;;6195335;28;20058;-83
2023/10/11 09:23:02;;;;;;;13.50;4.63;;;19.70;48.40;;;;;;6195145;28;20509;-80
2023/10/11 09:26:05;;;;;;;15.27;4.50;;;19.70;47.40;;;;;;6193829;28;20125;-81
2023/10/11 09:29:07;;;;;;;12.63;4.72;;;19.70;48.50;;;;;;6191702;28;20482;-80
2023/10/11 09:32:09;;;;;;;14.90;4.60;;;19.80;48.20;;;;;;6194888;28;20061;-80
2023/10/11 09:35:13;;;;;;;10.45;4.57;;;19.90;46.60;;;;;;6195330;28;20440;-82
2023/10/11 09:38:19;;;;;;;11.77;4.93;;;20.20;44.30;;;;;;6195002;28;20066;-81
2023/10/11 09:41:21;;;;;;;19.38;4.60;;;20.50;38.00;;;;;;6195047;28;20073;-80
2023/10/11 09:44:23;;;;;;;13.35;4.80;;;20.60;38.00;;;;;;6189491;28;20648;-81
2023/10/11 09:47:31;;;;;;;13.98;5.05;;;20.80;35.10;;;;;;6194726;28;20073;-82
2023/10/11 09:50:33;;;;;;;10.37;4.43;;;20.80;35.70;;;;;;6147554;28;20058;-82
2023/10/11 09:53:35;;;;;;;13.10;4.72;;;21.00;31.10;;;;;;6192768;28;20054;-81
2023/10/11 09:56:37;;;;;;;14.48;4.32;;;21.10;31.40;;;;;;6194927;28;20109;-83
2023/10/11 09:59:39;;;;;;;13.65;4.57;;;21.30;30.30;;;;;;6188038;28;20498;-82
2023/10/11 10:02:44;;;;;;;16.02;4.65;;;21.10;28.30;;;;;;6176132;28;20051;-81
2023/10/11 10:05:46;;;;;;;21.65;4.70;;;20.80;31.40;;;;;;6194901;28;20189;-82
2023/10/11 10:08:50;;;;;;;9.50;3.72;;;21.30;27.80;;;;;;6194911;28;20054;-83
2023/10/11 10:11:51;;;;;;;14.20;4.10;;;21.40;28.40;;;;;;6193275;28;20057;-81
2023/10/11 10:14:53;;;;;;;10.50;3.58;;;21.20;24.60;;;;;;6192727;28;20542;-80
2023/10/11 10:17:56;;;;;;;10.23;3.90;;;21.20;28.80;;;;;;6193064;28;20465;-80
2023/10/11 10:21:02;;;;;;;11.07;3.63;;;21.40;28.30;;;;;;6194626;28;20440;-81
2023/10/11 10:24:07;;;;;;;9.88;3.50;;;21.70;23.80;;;;;;6161019;28;20570;-81
2023/10/11 10:27:12;;;;;;;16.08;3.42;;;21.80;22.60;;;;;;6194413;28;20058;-80
2023/10/11 10:30:16;;;;;;;7.78;3.28;;;21.60;18.50;;;;;;6192388;28;20134;-83
2023/10/11 10:33:18;;;;;;;8.43;3.20;;;21.60;17.80;;;;;;6169923;28;20479;-81
2023/10/11 10:36:21;;;;;;;9.65;3.20;;;21.80;16.60;;;;;;6199017;28;20046;-82
2023/10/11 10:42:24;;;;;;;8.48;3.30;;;21.90;14.90;;;;;;6198544;28;20089;-80
2023/10/11 10:45:26;;;;;;;10.13;3.72;;;22.40;12.50;;;;;;6192720;28;20054;-81
2023/10/11 10:48:39;;;;;;;8.80;3.28;;;22.50;9.40;;;;;;6199028;28;20152;-84
2023/10/11 10:51:47;;;;;;;12.15;3.50;;;22.50;3.00;;;;;;6165661;28;20059;-80
2023/10/11 10:54:48;;;;;;;10.30;4.05;;;22.30;7.30;;;;;;6174958;28;20160;-81
2023/10/11 10:57:54;;;;;;;9.25;3.85;;;22.00;11.00;;;;;;6191695;28;20069;-84
2023/10/11 11:00:59;;;;;;;10.80;3.80;;;22.00;13.90;;;;;;6195183;28;20405;-81
2023/10/11 11:04:08;;;;;;;10.40;4.13;;;22.30;11.10;;;;;;6196948;28;20437;-82
2023/10/11 11:07:12;;;;;;;16.13;4.75;;;22.10;9.40;;;;;;6198698;28;20404;-82
2023/10/11 11:10:13;;;;;;;10.55;4.20;;;22.00;15.00;;;;;;6198334;28;20050;-82
2023/10/11 11:13:15;;;;;;;12.50;4.18;;;22.10;11.50;;;;;;6195252;28;20141;-85
2023/10/11 11:16:17;;;;;;;14.55;4.80;;;22.20;5.00;;;;;;6198137;28;20661;-82
2023/10/11 11:19:25;;;;;;;25.98;4.90;;;22.20;9.10;;;;;;6197935;28;20050;-82
2023/10/11 11:22:27;;;;;;;11.52;4.72;;;22.00;6.60;;;;;;6150225;28;20062;-83
2023/10/11 11:25:29;;;;;;;11.55;4.40;;;22.00;8.40;;;;;;6197222;28;20066;-81
2023/10/11 11:28:39;;;;;;;11.15;4.97;;;22.20;6.10;;;;;;6195849;28;20050;-82
2023/10/11 11:31:40;;;;;;;12.50;4.20;;;23.00;1.00;;;;;;6197970;28;20339;-82
2023/10/11 11:34:44;;;;;;;13.13;4.93;;;23.20;1.00;;;;;;6197916;28;20054;-83
2023/10/11 11:37:46;;;;;;;15.95;5.32;;;23.20;1.00;;;;;;6196536;28;20505;-84
2023/10/11 11:40:48;;;;;;;12.27;4.80;;;23.30;1.00;;;;;;6197918;28;20054;-81
2023/10/11 11:43:49;;;;;;;15.95;5.43;;;23.10;1.00;;;;;;6194161;28;20065;-80
2023/10/11 11:46:51;;;;;;;18.65;5.65;;;23.30;1.00;;;;;;6172411;28;20070;-81
2023/10/11 11:49:53;;;;;;;18.60;5.57;;;23.80;1.00;;;;;;6197358;28;20054;-81
2023/10/11 11:52:57;;;;;;;16.80;5.30;;;24.00;1.00;;;;;;6196574;28;20054;-84
2023/10/11 11:56:00;;;;;;;27.65;7.38;;;24.00;1.00;;;;;;6197487;28;20054;-81
2023/10/11 11:59:02;;;;;;;25.60;5.82;;;24.30;1.00;;;;;;6194234;28;20530;-82
2023/10/11 12:02:08;;;;;;;23.52;6.03;;;24.70;1.00;;;;;;6197427;28;20601;-82
2023/10/11 12:05:11;;;;;;;19.00;6.13;;;24.90;1.00;;;;;;6149633;28;20055;-84
2023/10/11 12:08:18;;;;;;;18.10;5.28;;;25.10;1.00;;;;;;6196491;28;20055;-82
2023/10/11 12:11:20;;;;;;;20.70;6.05;;;25.50;1.00;;;;;;6149490;29;20055;-85
2023/10/11 12:14:23;;;;;;;19.17;5.68;;;25.50;1.00;;;;;;6193260;28;20050;-81
2023/10/11 12:17:25;;;;;;;33.42;6.47;;;25.50;1.00;;;;;;6197987;28;20080;-82
2023/10/11 12:20:33;;;;;;;22.77;7.30;;;25.50;1.00;;;;;;6197203;28;20410;-84
2023/10/11 12:23:36;;;;;;;17.52;6.50;;;24.90;1.00;;;;;;6149098;28;20443;-82
2023/10/11 12:26:41;;;;;;;42.63;7.00;;;24.60;1.00;;;;;;6195763;28;20426;-83
2023/10/11 12:29:44;;;;;;;22.75;6.20;;;24.50;1.00;;;;;;6193622;28;20520;-83
2023/10/11 12:33:09;;;;;;;16.92;6.25;;;24.40;1.00;;;;;;6148591;28;20062;-83
2023/10/11 12:36:11;;;;;;;21.73;5.57;;;23.80;1.00;;;;;;6196843;28;20061;-82
2023/10/11 12:39:24;;;;;;;23.92;5.85;;;23.60;1.00;;;;;;6195002;28;20054;-81
2023/10/11 12:42:26;;;;;;;17.48;6.80;;;23.60;1.00;;;;;;6150009;28;20637;-81
2023/10/11 12:45:28;;;;;;;18.90;6.18;;;23.40;1.00;;;;;;6194494;28;20403;-81
2023/10/11 12:48:30;;;;;;;22.63;6.53;;;23.20;1.00;;;;;;6196396;28;20057;-81
2023/10/11 12:51:33;;;;;;;23.70;6.30;;;23.00;1.00;;;;;;6196206;28;20596;-80
2023/10/11 12:54:35;;;;;;;19.85;6.30;;;23.00;1.00;;;;;;6195780;28;20064;-81
2023/10/11 12:57:38;;;;;;;21.15;6.05;;;23.30;1.00;;;;;;6190273;28;20066;-82
2023/10/11 13:00:48;;;;;;;20.00;5.30;;;23.30;1.00;;;;;;6194453;28;20065;-80
2023/10/11 13:03:54;;;;;;;20.33;5.88;;;23.30;1.00;;;;;;6146465;29;20512;-83
2023/10/11 13:06:59;;;;;;;23.67;6.38;;;23.40;1.00;;;;;;6195894;28;20054;-80
2023/10/11 13:10:06;;;;;;;26.38;5.95;;;23.50;1.00;;;;;;6193863;28;20599;-81
2023/10/11 13:13:09;;;;;;;24.27;6.20;;;23.20;1.00;;;;;;6157710;28;20053;-82
2023/10/11 13:16:22;;;;;;;114.72;9.93;;;22.90;1.00;;;;;;6194827;28;20046;-83
2023/10/11 13:19:27;;;;;;;28.13;6.72;;;22.70;1.00;;;;;;6196230;28;20066;-83
2023/10/11 13:22:31;;;;;;;23.95;5.82;;;22.20;1.00;;;;;;6194416;28;20054;-79
2023/10/11 13:25:33;;;;;;;21.50;6.40;;;21.90;1.00;;;;;;6195346;28;20058;-80
2023/10/11 13:28:35;;;;;;;27.85;5.93;;;21.70;1.00;;;;;;6192153;28;20054;-79
2023/10/11 13:31:40;;;;;;;30.23;5.95;;;21.70;1.00;;;;;;6193827;28;20066;-81
2023/10/11 13:34:42;;;;;;;18.80;5.78;;;21.50;1.00;;;;;;6195136;28;20058;-79
2023/10/11 13:37:48;;;;;;;28.15;6.15;;;21.40;1.00;;;;;;6195105;28;20069;-81
2023/10/11 13:40:50;;;;;;;25.75;6.50;;;21.30;1.00;;;;;;6194642;28;20493;-79
2023/10/11 13:43:52;;;;;;;22.20;5.78;;;21.30;1.00;;;;;;6190058;28;20512;-80
2023/10/11 13:46:55;;;;;;;21.33;5.53;;;21.20;1.00;;;;;;6170174;28;20067;-79
2023/10/11 13:49:59;;;;;;;19.13;5.35;;;21.20;1.00;;;;;;6195810;28;20061;-82
2023/10/11 13:53:01;;;;;;;21.05;6.05;;;21.10;1.00;;;;;;6194875;28;20414;-81
2023/10/11 13:56:10;;;;;;;19.45;5.22;;;21.00;1.00;;;;;;6195037;28;20054;-80
2023/10/11 13:59:21;;;;;;;18.45;4.60;;;21.00;1.00;;;;;;6173465;28;20054;-78
2023/10/11 14:05:37;;;;;;;19.38;5.15;;;21.10;1.00;;;;;;6193214;28;20498;-79
2023/10/11 14:08:45;;;;;;;15.38;5.45;;;20.80;1.00;;;;;;6146114;28;20051;-77
2023/10/11 14:11:46;;;;;;;20.85;5.28;;;20.90;1.00;;;;;;6197143;28;20058;-80
2023/10/11 14:14:48;;;;;;;19.25;5.18;;;20.60;1.00;;;;;;6200831;28;20055;-80
2023/10/11 14:17:50;;;;;;;18.77;4.85;;;20.40;1.00;;;;;;6198822;28;20136;-77
2023/10/11 14:20:58;;;;;;;20.10;5.68;;;20.30;1.00;;;;;;6196791;28;20054;-82
2023/10/11 14:23:59;;;;;;;22.27;5.45;;;20.20;1.00;;;;;;6195548;28;20073;-80
2023/10/11 14:27:02;;;;;;;14.10;4.38;;;20.20;1.00;;;;;;6193047;28;20065;-79
2023/10/11 14:30:03;;;;;;;15.57;4.80;;;20.10;1.00;;;;;;6188706;28;20168;-80
2023/10/11 14:33:08;;;;;;;18.50;5.10;;;20.30;1.00;;;;;;6192399;28;20059;-79
2023/10/11 14:36:10;;;;;;;13.38;4.50;;;20.30;1.00;;;;;;6194152;28;20057;-79
2023/10/11 14:39:18;;;;;;;14.40;5.00;;;20.30;1.00;;;;;;6194111;28;20426;-77
2023/10/11 14:42:21;;;;;;;13.10;5.18;;;20.40;1.00;;;;;;6193715;28;20071;-78
2023/10/11 14:45:23;;;;;;;13.07;5.25;;;20.50;1.00;;;;;;6186695;28;20437;-79
2023/10/11 14:48:25;;;;;;;15.95;5.68;;;20.70;1.00;;;;;;6194338;28;20061;-78
2023/10/11 14:51:27;;;;;;;12.45;5.10;;;20.70;1.00;;;;;;6192698;28;20050;-78
2023/10/11 14:54:29;;;;;;;16.75;5.20;;;20.40;1.00;;;;;;6194319;28;20062;-80
2023/10/11 14:57:31;;;;;;;10.35;5.32;;;20.30;1.00;;;;;;6193309;28;20510;-79
2023/10/11 15:00:35;;;;;;;18.27;5.30;;;20.20;1.00;;;;;;6194529;28;20166;-79
2023/10/11 15:03:37;;;;;;;23.48;6.03;;;20.10;1.00;;;;;;6146411;29;20436;-79
2023/10/11 15:06:39;;;;;;;21.13;5.50;;;20.10;1.00;;;;;;6192841;28;20058;-82
2023/10/11 15:09:40;;;;;;;12.38;5.38;;;19.90;1.30;;;;;;6192529;28;20516;-79
2023/10/11 15:12:42;;;;;;;12.38;5.07;;;20.00;4.10;;;;;;6192324;28;20061;-80
2023/10/11 15:15:44;;;;;;;13.50;5.40;;;19.80;4.00;;;;;;6192412;28;20054;-80
2023/10/11 15:18:45;;;;;;;24.50;6.10;;;19.70;3.90;;;;;;6145375;29;20138;-78
2023/10/11 15:21:47;;;;;;;16.73;5.05;;;19.70;3.90;;;;;;6196300;28;20065;-79
2023/10/11 15:24:49;;;;;;;33.67;6.18;;;19.60;5.00;;;;;;6197768;28;20051;-79
2023/10/11 15:27:50;;;;;;;17.42;5.75;;;19.60;6.00;;;;;;6196285;28;20622;-78
2023/10/11 15:30:52;;;;;;;20.02;5.18;;;19.50;7.00;;;;;;6196561;28;20077;-80
2023/10/11 15:33:54;;;;;;;10.23;4.90;;;19.40;7.50;;;;;;6196360;28;20058;-77
2023/10/11 15:36:56;;;;;;;16.52;5.75;;;19.40;7.70;;;;;;6197940;28;20522;-77
2023/10/11 15:39:58;;;;;;;12.23;5.53;;;19.40;7.60;;;;;;6198155;28;20054;-79
2023/10/11 15:42:59;;;;;;;25.35;5.65;;;19.30;8.10;;;;;;6193400;28;20054;-77
2023/10/11 15:46:01;;;;;;;11.05;5.20;;;19.30;9.10;;;;;;6195548;28;20478;-79
2023/10/11 15:49:03;;;;;;;10.23;5.40;;;19.20;9.50;;;;;;6195905;28;20050;-81
2023/10/11 15:52:04;;;;;;;17.08;5.60;;;19.20;8.60;;;;;;6197569;28;20054;-81
2023/10/11 15:55:07;;;;;;;18.58;5.70;;;19.10;10.40;;;;;;6197391;28;20061;-77
2023/10/11 15:58:09;;;;;;;11.95;5.28;;;19.10;12.30;;;;;;6195884;28;20128;-78
2023/10/11 16:01:14;;;;;;;19.17;5.72;;;19.10;11.80;;;;;;6196027;28;20065;-77
2023/10/11 16:04:16;;;;;;;14.38;5.53;;;19.00;11.20;;;;;;6196852;28;20169;-78
2023/10/11 16:07:18;;;;;;;14.10;5.15;;;19.00;9.40;;;;;;6197132;28;20050;-78
2023/10/11 16:10:20;;;;;;;12.00;5.25;;;19.00;10.10;;;;;;6196710;28;20541;-79
2023/10/11 16:13:22;;;;;;;16.05;5.70;;;18.90;10.30;;;;;;6190413;28;20061;-79
2023/10/11 16:16:24;;;;;;;16.17;6.13;;;18.90;9.80;;;;;;6196793;28;20061;-79
2023/10/11 16:19:28;;;;;;;16.65;5.65;;;18.80;10.90;;;;;;6196431;28;20411;-78
2023/10/11 16:22:30;;;;;;;14.60;5.80;;;18.80;12.70;;;;;;6196690;28;20506;-78
2023/10/11 16:25:32;;;;;;;13.55;5.55;;;18.70;11.40;;;;;;6196639;28;20059;-78
2023/10/11 16:28:36;;;;;;;16.88;6.40;;;18.70;12.60;;;;;;6192238;28;20050;-78
2023/10/11 16:31:37;;;;;;;14.20;5.78;;;18.60;12.60;;;;;;6196292;28;20069;-78
2023/10/11 16:34:42;;;;;;;18.75;6.30;;;18.60;12.60;;;;;;6196287;28;20069;-78